Time;durP1;ratioP1;P1;durP2;ratioP2;P2;SDS_P1;SDS_P2;PMS_P1;PMS_P2;Temp;Humidity;BMP_temperature;BMP_pressure;BME280_temperature;BME280_humidity;BME280_pressure;Samples;Min_cycle;Max_cycle;Signal;HPM_P1;HPM_P2
2022/04/09 07:13:11;;;;;;;;;;;;;;;20.93;57.65;96635.47;4770217;30;19963;-70
2022/04/09 07:15:39;;;;;;;;;;;;;;;20.60;59.36;96623.88;4771123;30;20378;-70
2022/04/09 07:18:06;;;;;;;;;;;;;;;20.47;64.73;96632.06;4770817;30;19960;-70
2022/04/09 07:20:35;;;;;;;;;;;;;;;20.48;59.12;96631.53;4772163;30;19958;-70
2022/04/09 07:23:03;;;;;;;;;;;;;;;20.49;63.58;96623.81;4772288;30;19961;-73
2022/04/09 07:25:30;;;;;;;;;;;;;;;20.41;60.17;96619.84;4773465;30;20408;-71
2022/04/09 07:27:58;;;;;;;;;;;;;;;20.34;58.08;96629.63;4774611;30;19973;-71
2022/04/09 07:30:26;;;;;;;;;;;;;;;20.24;62.14;96617.66;4774987;30;19958;-71
2022/04/09 07:32:56;;;;;;;;;;;;;;;20.38;57.33;96635.84;4775059;30;20252;-70
2022/04/09 07:35:24;;;;;;;;;;;;;;;20.09;61.28;96628.34;4774545;30;20353;-71
2022/04/09 07:37:54;;;;;;;;;;;;;;;20.01;58.46;96637.78;4773830;30;19954;-70
2022/04/09 07:40:22;;;;;;;;;;;;;;;20.03;61.53;96627.47;4775000;30;19955;-70
2022/04/09 07:42:49;;;;;;;;;;;;;;;20.24;62.31;96637.53;4773078;30;19967;-70
2022/04/09 07:45:17;;;;;;;;;;;;;;;20.18;58.56;96631.00;4772262;30;20357;-70
2022/04/09 07:47:44;;;;;;;;;;;;;;;20.62;61.00;96635.50;4775415;30;19969;-70
2022/04/09 07:50:12;;;;;;;;;;;;;;;20.66;54.10;96644.59;4759204;30;19950;-71
2022/04/09 07:52:42;;;;;;;;;;;;;;;20.69;56.91;96635.03;4780360;30;19958;-71
2022/04/09 07:55:11;;;;;;;;;;;;;;;20.84;56.60;96633.59;4785192;30;20271;-71
2022/04/09 07:57:38;;;;;;;;;;;;;;;21.00;50.78;96637.06;4768156;30;19959;-70
2022/04/09 08:00:06;;;;;;;;;;;;;;;20.84;51.43;96630.75;4776196;30;19959;-70
2022/04/09 08:02:38;;;;;;;;;;;;;;;20.90;49.82;96625.91;4778292;30;19953;-70
2022/04/09 08:05:05;;;;;;;;;;;;;;;20.77;52.18;96622.72;4772814;30;19957;-70
2022/04/09 08:07:32;;;;;;;;;;;;;;;20.92;51.84;96642.44;4773052;30;20271;-70
2022/04/09 08:09:59;;;;;;;;;;;;;;;20.86;54.54;96625.34;4772328;30;19957;-70
2022/04/09 08:12:27;;;;;;;;;;;;;;;20.88;51.17;96628.47;4792357;29;20414;-70
2022/04/09 08:14:54;;;;;;;;;;;;;;;21.05;49.50;96637.13;4788959;29;19984;-71
2022/04/09 08:17:21;;;;;;;;;;;;;;;21.21;49.54;96636.44;4789216;29;20419;-71
2022/04/09 08:19:49;;;;;;;;;;;;;;;21.07;51.93;96654.44;4789956;29;19953;-71
2022/04/09 08:22:17;;;;;;;;;;;;;;;21.12;52.48;96650.88;4788312;29;19955;-71
2022/04/09 08:24:46;;;;;;;;;;;;;;;20.92;54.66;96650.97;4788689;29;19956;-71
2022/04/09 08:27:13;;;;;;;;;;;;;;;21.17;53.09;96649.34;4791715;30;19963;-71
2022/04/09 08:29:41;;;;;;;;;;;;;;;21.20;47.00;96646.25;4791869;29;20251;-71
2022/04/09 08:32:08;;;;;;;;;;;;;;;21.31;45.81;96640.63;4792417;29;19959;-71
2022/04/09 08:34:36;;;;;;;;;;;;;;;21.46;51.96;96646.91;4792396;30;19959;-71
2022/04/09 08:37:03;;;;;;;;;;;;;;;21.39;49.92;96644.56;4791093;29;20376;-71
2022/04/09 08:39:30;;;;;;;;;;;;;;;21.29;46.66;96648.91;4790639;29;19986;-71
2022/04/09 08:41:58;;;;;;;;;;;;;;;21.34;48.47;96658.72;4790606;29;19976;-71
2022/04/09 08:44:25;;;;;;;;;;;;;;;21.05;53.28;96673.25;4792175;29;20038;-71
2022/04/09 08:46:53;;;;;;;;;;;;;;;20.92;50.45;96665.97;4790714;29;19954;-71
2022/04/09 08:49:22;;;;;;;;;;;;;;;20.84;46.42;96669.75;4790944;30;19971;-71
2022/04/09 08:51:53;;;;;;;;;;;;;;;20.80;46.70;96672.06;4791469;29;19952;-71
2022/04/09 08:54:21;;;;;;;;;;;;;;;20.71;48.79;96660.91;4790854;30;20331;-71
2022/04/09 08:56:49;;;;;;;;;;;;;;;20.99;53.35;96667.53;4791647;29;19956;-71
2022/04/09 08:59:17;;;;;;;;;;;;;;;21.05;47.43;96661.91;4791756;29;19962;-71
2022/04/09 09:01:44;;;;;;;;;;;;;;;21.00;47.91;96668.31;4792117;30;19983;-71
2022/04/09 09:04:12;;;;;;;;;;;;;;;20.74;45.34;96671.22;4821227;29;20375;-71
2022/04/09 09:06:40;;;;;;;;;;;;;;;21.01;49.64;96664.19;4791651;30;20259;-71
2022/04/09 09:09:09;;;;;;;;;;;;;;;20.81;44.13;96676.44;4791527;29;19977;-71
2022/04/09 09:11:47;;;;;;;;;;;;;;;21.03;48.83;96668.06;4791379;29;19983;-71
2022/04/09 09:14:33;;;;;;;;;;;;;;;20.75;44.72;96676.41;4787757;30;19955;-71
2022/04/09 09:17:02;;;;;;;;;;;;;;;20.81;45.05;96671.53;4791045;29;19960;-71
2022/04/09 09:19:58;;;;;;;;;;;;;;;21.02;46.82;96677.91;4788652;30;19958;-71
2022/04/09 09:22:38;;;;;;;;;;;;;;;20.93;45.50;96672.44;4789230;29;19954;-71
2022/04/09 09:25:07;;;;;;;;;;;;;;;20.89;45.99;96666.19;4785726;29;19961;-71
2022/04/09 09:27:35;;;;;;;;;;;;;;;21.12;44.98;96669.97;4790483;29;19953;-71
2022/04/09 09:30:03;;;;;;;;;;;;;;;21.26;45.68;96669.81;4791777;29;19954;-71
2022/04/09 09:32:31;;;;;;;;;;;;;;;21.53;42.26;96671.22;4791215;29;19950;-71
2022/04/09 09:35:01;;;;;;;;;;;;;;;21.66;41.21;96668.72;4791545;29;20031;-71
2022/04/09 09:37:30;;;;;;;;;;;;;;;21.48;40.98;96663.44;4791346;29;20336;-71
2022/04/09 09:39:57;;;;;;;;;;;;;;;21.65;45.21;96670.00;4791412;29;20312;-71
2022/04/09 09:42:28;;;;;;;;;;;;;;;21.71;43.65;96664.31;4791107;29;19963;-71
2022/04/09 09:44:55;;;;;;;;;;;;;;;21.81;43.01;96663.56;4791001;29;19968;-71
2022/04/09 09:47:23;;;;;;;;;;;;;;;21.77;33.92;96657.34;4791364;29;19956;-71
2022/04/09 09:49:58;;;;;;;;;;;;;;;21.81;29.72;96645.75;4791025;29;19981;-71
2022/04/09 09:52:27;;;;;;;;;;;;;;;21.82;26.13;96658.66;4790835;29;20349;-71
2022/04/09 09:55:01;;;;;;;;;;;;;;;21.74;27.78;96657.63;4790955;29;19957;-71
2022/04/09 09:57:29;;;;;;;;;;;;;;;21.56;26.72;96658.84;4791205;29;19959;-71
2022/04/09 10:00:01;;;;;;;;;;;;;;;21.75;26.92;96662.00;4791178;29;19959;-71
2022/04/09 10:02:33;;;;;;;;;;;;;;;21.85;26.95;96654.81;4790637;29;20474;-71
2022/04/09 10:05:00;;;;;;;;;;;;;;;21.96;27.04;96657.72;4790440;30;19963;-71
2022/04/09 10:07:27;;;;;;;;;;;;;;;21.87;26.44;96653.03;4785090;29;19977;-71
2022/04/09 10:09:55;;;;;;;;;;;;;;;21.83;26.49;96654.53;4791038;30;19976;-71
2022/04/09 10:12:23;;;;;;;;;;;;;;;21.90;28.92;96654.84;4819499;29;19976;-71
2022/04/09 10:14:55;;;;;;;;;;;;;;;21.83;28.13;96661.00;4789386;29;19971;-71
2022/04/09 10:17:23;;;;;;;;;;;;;;;21.84;30.13;96658.91;4788306;29;20685;-71
2022/04/09 10:19:54;;;;;;;;;;;;;;;21.78;27.51;96652.44;4791062;30;19949;-71
2022/04/09 10:22:23;;;;;;;;;;;;;;;21.33;26.58;96655.09;4792200;29;19959;-71
2022/04/09 10:24:51;;;;;;;;;;;;;;;21.48;25.90;96658.53;4789720;30;19952;-71
2022/04/09 10:27:38;;;;;;;;;;;;;;;21.63;27.28;96658.34;4791355;29;19962;-71
2022/04/09 10:30:15;;;;;;;;;;;;;;;21.46;26.03;96652.59;4784245;30;20255;-70
2022/04/09 10:32:43;;;;;;;;;;;;;;;21.30;27.38;96672.44;4775704;29;19990;-70
2022/04/09 10:35:30;;;;;;;;;;;;;;;20.84;26.33;96672.59;4775413;30;19959;-70
2022/04/09 10:38:15;;;;;;;;;;;;;;;20.90;25.87;96648.63;4802513;29;19959;-70
2022/04/09 10:40:42;;;;;;;;;;;;;;;20.48;26.95;96664.81;4790468;30;19957;-70
2022/04/09 10:43:30;;;;;;;;;;;;;;;20.24;27.34;96670.81;4789715;30;19966;-70
2022/04/09 10:46:00;;;;;;;;;;;;;;;19.93;27.32;96671.47;4790599;30;20345;-70
2022/04/09 10:48:29;;;;;;;;;;;;;;;19.94;28.22;96666.59;4790403;29;19973;-70
2022/04/09 10:50:56;;;;;;;;;;;;;;;20.16;29.70;96658.31;4790658;30;19961;-70
2022/04/09 10:53:28;;;;;;;;;;;;;;;20.26;27.64;96654.84;4789708;30;19961;-70
2022/04/09 10:56:15;;;;;;;;;;;;;;;20.38;28.37;96664.22;4788381;29;19963;-70
2022/04/09 10:59:00;;;;;;;;;;;;;;;20.58;27.43;96652.78;4781324;30;19952;-70
2022/04/09 11:01:46;;;;;;;;;;;;;;;20.81;28.76;96665.06;4790516;30;19952;-73
2022/04/09 11:07:03;;;;;;;;;;;;;;;20.40;27.90;96660.88;4794335;30;19976;-71
2022/04/09 11:09:48;;;;;;;;;;;;;;;19.75;27.51;96663.31;4793688;29;19986;-72
2022/04/09 11:12:16;;;;;;;;;;;;;;;19.53;27.72;96680.06;4792800;30;19977;-73
2022/04/09 11:14:48;;;;;;;;;;;;;;;19.34;28.25;96675.91;4793303;29;19961;-71
2022/04/09 11:17:18;;;;;;;;;;;;;;;19.01;28.91;96662.84;4793280;29;20373;-71
2022/04/09 11:19:47;;;;;;;;;;;;;;;18.99;29.66;96668.22;4793102;29;19956;-71
2022/04/09 11:22:16;;;;;;;;;;;;;;;18.93;29.86;96673.00;4791677;30;19953;-71
2022/04/09 11:24:44;;;;;;;;;;;;;;;18.64;29.00;96667.44;4791219;29;19952;-72
2022/04/09 11:27:11;;;;;;;;;;;;;;;18.54;28.97;96660.31;4790514;29;19963;-71
2022/04/09 11:29:40;;;;;;;;;;;;;;;18.25;29.67;96674.47;4793293;30;19970;-73
2022/04/09 11:32:18;;;;;;;;;;;;;;;18.28;29.88;96671.44;4791334;30;19950;-71
2022/04/09 11:35:11;;;;;;;;;;;;;;;18.67;29.34;96662.84;4790780;30;19954;-72
2022/04/09 11:37:41;;;;;;;;;;;;;;;18.67;30.49;96657.16;4790451;30;19954;-72
2022/04/09 11:40:10;;;;;;;;;;;;;;;18.54;29.72;96673.69;4791251;30;19958;-71
2022/04/09 11:42:47;;;;;;;;;;;;;;;18.49;30.12;96677.97;4792640;29;19964;-71
2022/04/09 11:45:18;;;;;;;;;;;;;;;18.40;28.65;96689.38;4792133;30;19952;-71
2022/04/09 11:47:46;;;;;;;;;;;;;;;18.30;28.53;96682.25;4793538;29;19953;-71
2022/04/09 11:50:15;;;;;;;;;;;;;;;18.20;28.84;96684.41;4792804;29;19973;-71
2022/04/09 11:52:43;;;;;;;;;;;;;;;18.07;28.44;96700.88;4792409;29;20149;-73
2022/04/09 11:55:11;;;;;;;;;;;;;;;17.98;28.13;96703.03;4792714;29;19952;-71
2022/04/09 11:57:39;;;;;;;;;;;;;;;17.89;26.78;96700.28;4790949;29;20252;-71
2022/04/09 12:00:06;;;;;;;;;;;;;;;17.73;26.22;96699.47;4789777;30;20332;-71
2022/04/09 12:02:40;;;;;;;;;;;;;;;17.57;26.06;96714.06;4791877;29;19959;-73
2022/04/09 12:05:08;;;;;;;;;;;;;;;17.54;26.23;96722.72;4792732;30;19955;-72
2022/04/09 12:07:43;;;;;;;;;;;;;;;17.48;25.20;96716.16;4791721;29;20369;-72
2022/04/09 12:10:23;;;;;;;;;;;;;;;17.51;25.66;96713.13;4789564;30;20010;-72
2022/04/09 12:12:57;;;;;;;;;;;;;;;17.58;25.91;96726.16;4785445;29;20406;-71
2022/04/09 12:15:35;;;;;;;;;;;;;;;17.81;28.14;96714.00;4790864;29;19949;-71
2022/04/09 12:18:06;;;;;;;;;;;;;;;17.90;26.89;96721.66;4791634;30;19951;-71
2022/04/09 12:20:35;;;;;;;;;;;;;;;17.67;24.49;96729.69;4792234;30;19958;-71
2022/04/09 12:23:04;;;;;;;;;;;;;;;17.55;23.76;96739.19;4791725;30;19957;-71
2022/04/09 12:25:34;;;;;;;;;;;;;;;17.44;24.28;96747.41;4789773;29;20387;-71
2022/04/09 12:28:03;;;;;;;;;;;;;;;17.39;24.88;96741.63;4787428;30;19961;-72
2022/04/09 12:30:42;;;;;;;;;;;;;;;17.33;23.46;96752.81;4791717;29;19978;-72
2022/04/09 12:33:10;;;;;;;;;;;;;;;17.13;23.89;96765.94;4792524;29;20238;-71
2022/04/09 12:35:38;;;;;;;;;;;;;;;17.15;25.05;96769.06;4792181;30;19954;-71
2022/04/09 12:38:06;;;;;;;;;;;;;;;17.11;24.77;96774.13;4790962;30;19954;-71
2022/04/09 12:40:33;;;;;;;;;;;;;;;17.14;25.40;96776.00;4791692;29;19964;-71
2022/04/09 12:43:01;;;;;;;;;;;;;;;17.07;25.35;96779.94;4789286;29;19970;-71
2022/04/09 12:45:31;;;;;;;;;;;;;;;17.15;25.35;96778.31;4789145;30;20262;-72
2022/04/09 12:47:59;;;;;;;;;;;;;;;17.49;24.42;96772.16;4787704;30;19964;-72
2022/04/09 12:50:31;;;;;;;;;;;;;;;18.00;26.25;96776.84;4786770;30;20408;-72
2022/04/09 12:53:00;;;;;;;;;;;;;;;18.23;22.96;96776.81;4790885;29;19950;-71
2022/04/09 12:55:30;;;;;;;;;;;;;;;18.25;22.81;96770.66;4789636;30;19958;-71
2022/04/09 12:57:58;;;;;;;;;;;;;;;18.25;22.60;96777.09;4789462;30;19963;-71
2022/04/09 13:00:25;;;;;;;;;;;;;;;18.41;22.47;96773.03;4790435;30;20340;-72
2022/04/09 13:02:53;;;;;;;;;;;;;;;18.36;21.78;96759.56;4791190;29;20338;-72
2022/04/09 13:05:21;;;;;;;;;;;;;;;18.66;24.79;96761.16;4791189;30;19951;-72
2022/04/09 13:07:48;;;;;;;;;;;;;;;18.76;22.99;96768.28;4820191;29;19988;-72
2022/04/09 13:10:15;;;;;;;;;;;;;;;18.90;22.69;96763.88;4791179;29;19973;-72
2022/04/09 13:12:43;;;;;;;;;;;;;;;18.96;23.83;96765.53;4791177;29;19975;-72
2022/04/09 13:15:10;;;;;;;;;;;;;;;19.05;22.79;96780.84;4785000;29;19955;-72
2022/04/09 13:17:37;;;;;;;;;;;;;;;19.14;23.02;96794.91;4787799;30;20021;-71
2022/04/09 13:20:06;;;;;;;;;;;;;;;19.24;21.77;96790.69;4790717;29;20251;-71
2022/04/09 13:22:34;;;;;;;;;;;;;;;19.38;21.11;96789.88;4789594;29;20359;-71
2022/04/09 13:25:03;;;;;;;;;;;;;;;19.43;22.74;96797.69;4788939;29;19986;-72
2022/04/09 13:27:30;;;;;;;;;;;;;;;19.38;21.88;96798.41;4789234;29;20349;-71
2022/04/09 13:29:57;;;;;;;;;;;;;;;19.34;21.76;96792.13;4790629;29;19981;-71
2022/04/09 13:32:25;;;;;;;;;;;;;;;19.34;21.04;96801.38;4791093;29;20349;-71
2022/04/09 13:34:52;;;;;;;;;;;;;;;19.13;21.68;96796.16;4788792;29;19955;-71
2022/04/09 13:37:20;;;;;;;;;;;;;;;18.97;20.13;96789.72;4790877;29;19950;-71
2022/04/09 13:39:47;;;;;;;;;;;;;;;18.95;21.53;96812.09;4790827;30;19958;-71
2022/04/09 13:42:15;;;;;;;;;;;;;;;18.67;21.99;96801.56;4786938;30;19953;-71
2022/04/09 13:44:45;;;;;;;;;;;;;;;18.39;21.32;96804.63;4783760;30;19953;-71
2022/04/09 13:47:12;;;;;;;;;;;;;;;18.26;20.74;96800.53;4790800;30;19974;-71
2022/04/09 13:49:40;;;;;;;;;;;;;;;18.10;21.71;96821.56;4790515;29;19971;-71
2022/04/09 13:52:08;;;;;;;;;;;;;;;18.15;21.00;96817.28;4784696;30;19956;-71
2022/04/09 13:54:36;;;;;;;;;;;;;;;18.00;22.54;96786.13;4789926;29;19960;-71
2022/04/09 13:57:04;;;;;;;;;;;;;;;17.89;20.88;96816.22;4790242;29;19957;-71
2022/04/09 13:59:31;;;;;;;;;;;;;;;17.79;21.45;96828.84;4787943;30;19953;-72
2022/04/09 14:01:59;;;;;;;;;;;;;;;17.58;21.69;96842.78;4790588;29;19960;-71
2022/04/09 14:04:28;;;;;;;;;;;;;;;17.52;22.78;96835.47;4790886;29;20251;-71
2022/04/09 14:06:55;;;;;;;;;;;;;;;17.44;21.76;96848.34;4789649;30;19957;-71
2022/04/09 14:09:23;;;;;;;;;;;;;;;17.45;22.36;96856.34;4781523;29;20322;-71
2022/04/09 14:11:50;;;;;;;;;;;;;;;17.54;23.04;96847.06;4780399;29;20391;-71
2022/04/09 14:14:17;;;;;;;;;;;;;;;17.58;22.05;96854.09;4792639;29;19953;-71
2022/04/09 14:16:47;;;;;;;;;;;;;;;17.56;22.81;96865.13;4784082;29;19953;-71
2022/04/09 14:19:15;;;;;;;;;;;;;;;17.57;23.16;96860.25;4790700;29;19960;-70
2022/04/09 14:21:42;;;;;;;;;;;;;;;17.44;22.38;96863.25;4789349;29;20250;-70
2022/04/09 14:24:10;;;;;;;;;;;;;;;17.31;22.42;96878.88;4787250;29;19962;-71
2022/04/09 14:26:37;;;;;;;;;;;;;;;17.26;22.73;96888.00;4790723;29;19953;-71
2022/04/09 14:29:09;;;;;;;;;;;;;;;17.19;24.21;96900.41;4799730;29;19952;-71
2022/04/09 14:31:37;;;;;;;;;;;;;;;17.15;24.33;96894.13;4786425;30;19977;-71
2022/04/09 14:34:05;;;;;;;;;;;;;;;17.07;24.72;96902.16;4783951;29;19959;-71
2022/04/09 14:36:33;;;;;;;;;;;;;;;16.89;24.04;96902.22;4788359;29;19964;-73
2022/04/09 14:39:05;;;;;;;;;;;;;;;16.82;25.31;96915.88;4787093;30;19961;-72
2022/04/09 14:41:33;;;;;;;;;;;;;;;16.70;23.63;96919.66;4786047;30;19953;-71
2022/04/09 14:44:00;;;;;;;;;;;;;;;16.67;24.96;96912.13;4789293;29;20246;-71
2022/04/09 14:46:28;;;;;;;;;;;;;;;16.51;24.13;96918.03;4789691;29;19962;-70
2022/04/09 14:48:55;;;;;;;;;;;;;;;16.50;24.37;96922.13;4788583;30;19952;-71
2022/04/09 14:51:22;;;;;;;;;;;;;;;16.55;23.53;96930.78;4787115;29;19977;-71
2022/04/09 14:53:50;;;;;;;;;;;;;;;16.44;24.06;96941.72;4785835;29;19977;-71
2022/04/09 14:56:17;;;;;;;;;;;;;;;16.32;23.97;96948.28;4788868;29;20262;-71
2022/04/09 14:58:44;;;;;;;;;;;;;;;16.29;23.70;96952.03;4789209;29;19964;-71
2022/04/09 15:01:12;;;;;;;;;;;;;;;16.29;23.65;96947.19;4789960;29;19962;-71
2022/04/09 15:03:40;;;;;;;;;;;;;;;16.20;22.77;96966.16;4789065;30;19954;-71
2022/04/09 15:06:07;;;;;;;;;;;;;;;16.22;23.19;96972.09;4784589;29;19953;-71
2022/04/09 15:08:37;;;;;;;;;;;;;;;16.19;23.02;96982.28;4790001;29;20267;-71
2022/04/09 15:11:04;;;;;;;;;;;;;;;16.17;23.90;96989.63;4789615;29;20063;-71
2022/04/09 15:13:32;;;;;;;;;;;;;;;16.15;22.88;96997.78;4790348;29;20278;-71
2022/04/09 15:16:00;;;;;;;;;;;;;;;16.06;23.02;97001.38;4787491;29;20353;-71
2022/04/09 15:18:27;;;;;;;;;;;;;;;16.01;27.15;97026.56;4777408;30;19962;-71
2022/04/09 15:20:55;;;;;;;;;;;;;;;15.59;40.90;97037.50;4788142;29;20260;-71
2022/04/09 15:23:22;;;;;;;;;;;;;;;15.41;46.40;97040.97;4787757;29;20344;-71
2022/04/09 15:25:50;;;;;;;;;;;;;;;14.93;50.31;97036.72;4789217;29;19966;-72
2022/04/09 15:28:17;;;;;;;;;;;;;;;14.59;53.29;97058.47;4789616;29;19954;-70
2022/04/09 15:30:44;;;;;;;;;;;;;;;14.38;54.80;97066.38;4789354;29;19976;-70
2022/04/09 15:33:12;;;;;;;;;;;;;;;14.04;58.75;97074.72;4789259;29;19961;-70
2022/04/09 15:35:39;;;;;;;;;;;;;;;14.04;60.42;97071.09;4789738;30;19963;-71
2022/04/09 15:38:08;;;;;;;;;;;;;;;14.02;59.38;97074.38;4788461;29;19959;-72
2022/04/09 15:40:36;;;;;;;;;;;;;;;14.03;60.19;97083.59;4789416;30;19954;-71
2022/04/09 15:43:03;;;;;;;;;;;;;;;13.96;60.96;97100.69;4789652;29;19958;-71
2022/04/09 15:45:30;;;;;;;;;;;;;;;14.04;61.50;97107.66;4789559;29;19954;-70
2022/04/09 15:47:58;;;;;;;;;;;;;;;13.64;57.16;97110.09;4774977;29;19952;-72
2022/04/09 15:50:25;;;;;;;;;;;;;;;13.74;58.62;97106.19;4786107;29;19984;-70
2022/04/09 15:52:52;;;;;;;;;;;;;;;13.83;56.50;97118.34;4782526;30;19973;-70
2022/04/09 15:55:22;;;;;;;;;;;;;;;13.90;60.51;97124.97;4792146;29;20251;-69
2022/04/09 15:57:49;;;;;;;;;;;;;;;13.96;59.50;97143.66;4792019;29;19954;-71
2022/04/09 16:00:17;;;;;;;;;;;;;;;13.84;57.44;97133.16;4792600;30;19984;-70
2022/04/09 16:02:44;;;;;;;;;;;;;;;13.71;58.37;97129.56;4792455;29;20350;-70
2022/04/09 16:05:11;;;;;;;;;;;;;;;13.77;54.80;97145.41;4792975;29;19959;-71
2022/04/09 16:07:39;;;;;;;;;;;;;;;13.76;55.91;97145.84;4784807;29;19964;-71
2022/04/09 16:10:07;;;;;;;;;;;;;;;13.66;55.27;97150.56;4791742;29;19960;-71
2022/04/09 16:12:35;;;;;;;;;;;;;;;13.66;53.90;97149.75;4786180;30;20364;-70
2022/04/09 16:15:03;;;;;;;;;;;;;;;13.65;54.94;97163.00;4774116;30;19955;-70
2022/04/09 16:17:31;;;;;;;;;;;;;;;13.65;54.25;97170.66;4774551;30;19954;-70
2022/04/09 16:19:59;;;;;;;;;;;;;;;13.58;56.11;97171.66;4761162;30;19967;-70
2022/04/09 16:22:26;;;;;;;;;;;;;;;13.70;56.22;97172.91;4774690;30;20030;-70
2022/04/09 16:24:54;;;;;;;;;;;;;;;13.69;57.92;97174.16;4773370;30;19988;-70
2022/04/09 16:27:22;;;;;;;;;;;;;;;13.70;57.16;97176.53;4756531;30;19952;-70
2022/04/09 16:29:50;;;;;;;;;;;;;;;13.75;57.63;97192.03;4771494;30;19956;-69
2022/04/09 16:32:17;;;;;;;;;;;;;;;13.73;56.79;97186.06;4773766;30;19970;-70
2022/04/09 16:34:44;;;;;;;;;;;;;;;13.65;58.58;97199.53;4773851;30;19958;-70
2022/04/09 16:37:13;;;;;;;;;;;;;;;13.69;59.04;97210.69;4773865;30;20607;-71
2022/04/09 16:39:41;;;;;;;;;;;;;;;13.60;61.02;97202.09;4773940;30;19957;-70
2022/04/09 16:42:08;;;;;;;;;;;;;;;13.65;60.79;97210.78;4773764;30;20267;-71
2022/04/09 16:44:36;;;;;;;;;;;;;;;13.54;63.66;97215.91;4773838;30;19963;-70
2022/04/09 16:47:03;;;;;;;;;;;;;;;13.30;73.51;97225.81;4774717;30;20346;-70
2022/04/09 16:49:31;;;;;;;;;;;;;;;13.31;80.70;97237.81;4773737;30;19962;-71
2022/04/09 16:51:58;;;;;;;;;;;;;;;12.91;89.73;97235.19;4758750;30;19973;-70
2022/04/09 16:54:28;;;;;;;;;;;;;;;13.00;90.18;97240.19;4769487;30;19955;-70
2022/04/09 16:56:55;;;;;;;;;;;;;;;12.88;93.47;97252.91;4773985;30;20223;-70
2022/04/09 16:59:23;;;;;;;;;;;;;;;12.80;96.03;97262.72;4773586;30;19961;-70
2022/04/09 17:01:50;;;;;;;;;;;;;;;12.77;97.06;97269.22;4773037;30;19953;-70
2022/04/09 17:04:18;;;;;;;;;;;;;;;12.75;99.26;97274.47;4773281;30;19966;-70
2022/04/09 17:06:46;;;;;;;;;;;;;;;12.75;100.00;97288.50;4773854;30;19954;-70
2022/04/09 17:09:13;;;;;;;;;;;;;;;12.67;100.00;97291.88;4773792;30;19983;-70
2022/04/09 17:11:40;;;;;;;;;;;;;;;12.65;100.00;97294.34;4773593;29;20358;-70
2022/04/09 17:14:07;;;;;;;;;;;;;;;12.56;100.00;97294.97;4788738;30;19964;-70
2022/04/09 17:16:35;;;;;;;;;;;;;;;12.25;100.00;97299.25;4789193;30;20327;-70
2022/04/09 17:19:02;;;;;;;;;;;;;;;11.85;100.00;97307.69;4788505;30;19958;-72
2022/04/09 17:21:29;;;;;;;;;;;;;;;11.63;100.00;97317.69;4787405;30;20445;-72
2022/04/09 17:23:57;;;;;;;;;;;;;;;11.62;100.00;97313.28;4787667;29;19968;-70
2022/04/09 17:26:24;;;;;;;;;;;;;;;11.50;100.00;97322.31;4788060;30;19962;-69
2022/04/09 17:28:51;;;;;;;;;;;;;;;11.38;100.00;97327.72;4790766;30;19958;-70
2022/04/09 17:31:18;;;;;;;;;;;;;;;11.25;100.00;97321.94;4787587;30;19977;-70
2022/04/09 17:33:46;;;;;;;;;;;;;;;11.10;100.00;97331.81;4790783;30;19964;-70
2022/04/09 17:36:14;;;;;;;;;;;;;;;10.89;100.00;97344.13;4790083;30;20293;-71
2022/04/09 17:38:41;;;;;;;;;;;;;;;10.73;100.00;97352.38;4790189;30;19961;-71
2022/04/09 17:41:09;;;;;;;;;;;;;;;10.31;100.00;97366.94;4787574;30;20264;-70
2022/04/09 17:43:36;;;;;;;;;;;;;;;10.32;100.00;97376.91;4789001;30;19962;-71
2022/04/09 17:46:04;;;;;;;;;;;;;;;10.06;100.00;97378.38;4789524;29;20259;-70
2022/04/09 17:48:32;;;;;;;;;;;;;;;10.16;100.00;97390.66;4789065;30;19962;-70
2022/04/09 17:50:59;;;;;;;;;;;;;;;9.95;100.00;97404.84;4788569;30;19958;-70
2022/04/09 17:53:28;;;;;;;;;;;;;;;9.75;100.00;97415.81;4787099;30;19973;-70
2022/04/09 17:55:56;;;;;;;;;;;;;;;9.45;100.00;97418.47;4789284;30;19954;-69
2022/04/09 17:58:23;;;;;;;;;;;;;;;8.95;100.00;97454.31;4789951;30;19961;-69
2022/04/09 18:00:50;;;;;;;;;;;;;;;8.61;100.00;97454.09;4791127;29;19962;-69
2022/04/09 18:03:18;;;;;;;;;;;;;;;8.51;100.00;97471.63;4788990;29;19953;-70
2022/04/09 18:05:45;;;;;;;;;;;;;;;8.29;100.00;97487.63;4790584;30;20343;-69
2022/04/09 18:08:12;;;;;;;;;;;;;;;8.09;100.00;97502.38;4787322;30;20265;-70
2022/04/09 18:10:56;;;;;;;;;;;;;;;7.88;100.00;97514.34;4788502;30;19950;-70
2022/04/09 18:13:23;;;;;;;;;;;;;;;7.74;100.00;97517.94;4789295;29;19983;-70
2022/04/09 18:15:51;;;;;;;;;;;;;;;7.63;100.00;97538.63;4790458;30;19954;-70
2022/04/09 18:18:20;;;;;;;;;;;;;;;7.45;100.00;97543.34;4779384;30;20353;-70
2022/04/09 18:20:48;;;;;;;;;;;;;;;7.57;100.00;97562.44;4789967;30;19961;-69
2022/04/09 18:23:15;;;;;;;;;;;;;;;7.21;100.00;97561.59;4792289;29;19951;-69
2022/04/09 18:25:42;;;;;;;;;;;;;;;7.05;100.00;97567.50;4789728;30;20338;-69
2022/04/09 18:28:09;;;;;;;;;;;;;;;6.95;100.00;97584.94;4790703;30;19955;-69
2022/04/09 18:30:38;;;;;;;;;;;;;;;6.87;100.00;97599.97;4787532;30;20237;-70
2022/04/09 18:33:05;;;;;;;;;;;;;;;6.75;100.00;97607.88;4787689;30;19979;-69
2022/04/09 18:35:39;;;;;;;;;;;;;;;6.64;100.00;97627.25;4789324;30;20335;-69
2022/04/09 18:38:07;;;;;;;;;;;;;;;6.48;100.00;97626.78;4790007;30;19959;-69
2022/04/09 18:40:36;;;;;;;;;;;;;;;6.38;100.00;97664.38;4789264;30;20267;-70
2022/04/09 18:43:04;;;;;;;;;;;;;;;6.36;100.00;97677.84;4786806;29;19962;-72
2022/04/09 18:45:31;;;;;;;;;;;;;;;6.33;100.00;97670.28;4788249;30;19960;-71
2022/04/09 18:47:58;;;;;;;;;;;;;;;6.23;100.00;97690.47;4788049;29;20351;-72
2022/04/09 18:50:26;;;;;;;;;;;;;;;6.16;100.00;97711.81;4788718;30;20343;-72
2022/04/09 18:52:55;;;;;;;;;;;;;;;6.13;100.00;97715.34;4789976;30;19971;-72
2022/04/09 18:55:22;;;;;;;;;;;;;;;6.04;100.00;97743.41;4795968;29;19954;-72
2022/04/09 18:57:50;;;;;;;;;;;;;;;6.01;100.00;97744.19;4788037;30;19964;-72
2022/04/09 19:00:17;;;;;;;;;;;;;;;6.00;100.00;97755.66;4788007;29;19967;-72
2022/04/09 19:02:45;;;;;;;;;;;;;;;5.97;100.00;97776.63;4787473;30;19952;-72
2022/04/09 19:05:12;;;;;;;;;;;;;;;5.92;100.00;97799.19;4782834;30;19970;-72
2022/04/09 19:07:40;;;;;;;;;;;;;;;5.97;100.00;97816.28;4788731;29;19953;-72
2022/04/09 19:10:10;;;;;;;;;;;;;;;5.92;100.00;97840.78;4787108;30;19959;-71
2022/04/09 19:12:37;;;;;;;;;;;;;;;6.02;100.00;97864.28;4787078;30;19983;-71
2022/04/09 19:15:05;;;;;;;;;;;;;;;5.95;100.00;97876.94;4788325;30;19966;-71
2022/04/09 19:17:32;;;;;;;;;;;;;;;5.86;100.00;97898.63;4785230;30;19952;-71
2022/04/09 19:20:00;;;;;;;;;;;;;;;5.99;100.00;97898.38;4787313;29;19951;-72
2022/04/09 19:22:27;;;;;;;;;;;;;;;6.02;100.00;97897.59;4787817;30;19955;-72
2022/04/09 19:24:56;;;;;;;;;;;;;;;5.91;100.00;97897.50;4787232;29;19961;-71
2022/04/09 19:27:25;;;;;;;;;;;;;;;5.95;100.00;97892.78;4791404;30;19962;-69
2022/04/09 19:29:52;;;;;;;;;;;;;;;5.89;100.00;97852.69;4792857;30;20032;-72
2022/04/09 19:32:20;;;;;;;;;;;;;;;5.91;100.00;97855.88;4792593;30;19975;-71
2022/04/09 19:34:48;;;;;;;;;;;;;;;5.69;100.00;97857.53;4791482;30;19952;-70
2022/04/09 19:37:15;;;;;;;;;;;;;;;5.56;100.00;97849.81;4791498;30;19950;-72
2022/04/09 19:39:42;;;;;;;;;;;;;;;5.43;100.00;97876.19;4793252;30;19962;-70
2022/04/09 19:42:10;;;;;;;;;;;;;;;5.50;100.00;97887.38;4793165;30;19953;-71
2022/04/09 19:44:37;;;;;;;;;;;;;;;5.52;100.00;97913.56;4789447;30;19984;-71
2022/04/09 19:47:04;;;;;;;;;;;;;;;5.38;100.00;97918.09;4792110;30;19952;-71
2022/04/09 19:49:32;;;;;;;;;;;;;;;5.20;100.00;97926.13;4791423;30;19955;-71
2022/04/09 19:52:02;;;;;;;;;;;;;;;5.21;100.00;97928.53;4792493;29;20019;-71
2022/04/09 19:54:29;;;;;;;;;;;;;;;5.02;100.00;97944.44;4790476;30;20265;-72
2022/04/09 19:56:57;;;;;;;;;;;;;;;4.91;100.00;97941.50;4791457;30;19958;-72
2022/04/09 19:59:24;;;;;;;;;;;;;;;4.79;100.00;97958.31;4791837;30;19952;-71
2022/04/09 20:01:52;;;;;;;;;;;;;;;4.90;100.00;97983.41;4792715;30;19962;-71
2022/04/09 20:04:19;;;;;;;;;;;;;;;4.73;100.00;97986.66;4776126;30;20251;-72
2022/04/09 20:06:46;;;;;;;;;;;;;;;4.61;100.00;97995.94;4792602;30;19947;-71
2022/04/09 20:09:14;;;;;;;;;;;;;;;4.68;100.00;97990.53;4792420;30;19966;-71